Time;durP1;ratioP1;P1;durP2;ratioP2;P2;SDS_P1;SDS_P2;PMS_P1;PMS_P2;Temp;Humidity;BMP_temperature;BMP_pressure;BME280_temperature;BME280_humidity;BME280_pressure;Samples;Min_cycle;Max_cycle;Signal;HPM_P1;HPM_P2
2021/12/28 00:00:06;;;;;;;0.28;0.20;;;;;;;11.82;62.05;97881.25;3156361;28;20055;-87
2021/12/28 00:01:38;;;;;;;0.55;0.30;;;;;;;11.83;62.09;97880.22;3156530;28;20043;-87
2021/12/28 00:03:10;;;;;;;0.30;0.30;;;;;;;11.82;62.03;97881.25;3155969;28;20056;-87
2021/12/28 00:04:43;;;;;;;0.77;0.40;;;;;;;11.81;61.96;97876.94;3156035;28;20044;-87
2021/12/28 00:06:16;;;;;;;0.40;0.40;;;;;;;11.82;62.20;97875.94;3155614;28;20079;-87
2021/12/28 00:07:48;;;;;;;0.35;0.35;;;;;;;11.80;62.09;97877.94;3156038;28;20036;-87
2021/12/28 00:09:20;;;;;;;0.47;0.35;;;;;;;11.81;62.08;97882.25;3156766;28;20235;-85
2021/12/28 00:10:55;;;;;;;0.40;0.40;;;;;;;11.82;62.05;97875.94;3156695;28;20563;-87
2021/12/28 00:12:30;;;;;;;0.63;0.45;;;;;;;11.82;62.12;97881.25;3156501;28;20735;-86
2021/12/28 00:14:04;;;;;;;0.50;0.40;;;;;;;11.82;62.05;97875.09;3156295;28;20040;-87
2021/12/28 00:15:48;;;;;;;0.38;0.30;;;;;;;11.84;61.94;97881.06;3155934;28;20036;-85
2021/12/28 00:19:09;;;;;;;0.38;0.32;;;;;;;11.82;62.22;97880.41;3161124;28;20039;-87
2021/12/28 00:20:46;;;;;;;0.50;0.50;;;;;;;11.81;62.13;97876.09;3167018;28;20581;-84
2021/12/28 00:22:18;;;;;;;0.30;0.30;;;;;;;11.81;62.21;97873.44;3156723;28;20036;-84
2021/12/28 00:23:49;;;;;;;0.20;0.20;;;;;;;11.82;62.15;97883.06;3153421;28;20036;-87
2021/12/28 00:25:21;;;;;;;0.30;0.30;;;;;;;11.81;62.21;97884.91;3156411;28;20514;-84
2021/12/28 00:26:53;;;;;;;0.40;0.38;;;;;;;11.81;62.29;97884.91;3156566;28;20100;-88
2021/12/28 00:28:26;;;;;;;0.20;0.20;;;;;;;11.80;62.05;97879.75;3154949;28;20044;-85
2021/12/28 00:29:58;;;;;;;0.50;0.40;;;;;;;11.81;62.28;97884.06;3155661;28;20049;-85
2021/12/28 00:31:30;;;;;;;0.22;0.22;;;;;;;11.81;62.17;97887.56;3156882;28;20052;-88
2021/12/28 00:33:03;;;;;;;0.30;0.30;;;;;;;11.82;62.08;97883.91;3155299;28;20058;-88
2021/12/28 00:34:35;;;;;;;0.47;0.47;;;;;;;11.81;61.99;97878.75;3156225;28;20318;-87
2021/12/28 00:36:09;;;;;;;0.30;0.30;;;;;;;11.81;61.93;97884.06;3155692;28;20044;-88
2021/12/28 00:37:40;;;;;;;0.40;0.40;;;;;;;11.81;62.04;97884.91;3154784;28;20044;-87
2021/12/28 00:39:12;;;;;;;0.30;0.30;;;;;;;11.82;62.04;97880.41;3156090;28;20233;-86
2021/12/28 00:40:44;;;;;;;0.38;0.28;;;;;;;11.82;62.13;97880.41;3163879;28;20526;-83
2021/12/28 00:42:16;;;;;;;0.30;0.30;;;;;;;11.81;62.01;97882.25;3151703;28;20049;-87
2021/12/28 00:43:48;;;;;;;0.43;0.43;;;;;;;11.79;62.16;97876.28;3151574;28;20416;-90
2021/12/28 00:45:20;;;;;;;0.30;0.30;;;;;;;11.80;62.04;97874.44;3159133;28;20419;-86
2021/12/28 00:46:52;;;;;;;0.30;0.30;;;;;;;11.81;62.00;97876.09;3149645;28;20417;-87
2021/12/28 00:48:22;;;;;;;;;;;;;;;11.80;62.01;97875.28;3162957;28;20059;-89
2021/12/28 00:49:55;;;;;;;0.43;0.40;;;;;;;11.81;62.07;97879.59;3155613;28;19923;-88
2021/12/28 00:51:28;;;;;;;0.40;0.32;;;;;;;11.79;62.03;97886.91;3156512;28;20742;-85
2021/12/28 00:53:00;;;;;;;0.65;0.30;;;;;;;11.80;62.01;97891.22;3154764;28;20049;-88
2021/12/28 00:54:32;;;;;;;0.85;0.63;;;;;;;11.81;62.01;97882.25;3155197;28;20036;-86
2021/12/28 00:56:05;;;;;;;0.35;0.32;;;;;;;11.80;62.11;97885.06;3155143;28;20072;-88
2021/12/28 00:57:37;;;;;;;0.30;0.30;;;;;;;11.81;61.99;97886.72;3155245;28;20580;-88
2021/12/28 00:59:09;;;;;;;0.20;0.20;;;;;;;11.82;62.07;97883.06;3155596;28;20476;-86
2021/12/28 01:00:40;;;;;;;0.52;0.32;;;;;;;11.80;62.11;97875.28;3153627;28;20105;-88
2021/12/28 01:02:12;;;;;;;0.30;0.30;;;;;;;11.81;62.02;97876.09;3154760;28;20051;-89
2021/12/28 01:03:44;;;;;;;0.38;0.30;;;;;;;11.80;62.13;97877.94;3154419;28;20044;-88
2021/12/28 01:05:15;;;;;;;0.30;0.28;;;;;;;11.80;62.33;97869.94;3156190;28;20048;-88
2021/12/28 01:06:49;;;;;;;0.55;0.20;;;;;;;11.81;62.07;97868.13;3154726;28;20067;-88
2021/12/28 01:08:21;;;;;;;0.40;0.30;;;;;;;11.80;61.80;97875.28;3156245;28;20040;-88
2021/12/28 01:09:52;;;;;;;0.40;0.40;;;;;;;11.80;61.97;97869.94;3155319;28;20044;-88
2021/12/28 01:11:24;;;;;;;0.32;0.30;;;;;;;11.80;62.14;97872.63;3155965;28;20055;-85
2021/12/28 01:12:56;;;;;;;0.30;0.30;;;;;;;11.80;62.01;97877.94;3155467;28;20047;-89
2021/12/28 01:14:29;;;;;;;0.30;0.30;;;;;;;11.79;62.16;97873.63;3156475;28;20067;-85
2021/12/28 01:16:01;;;;;;;0.30;0.30;;;;;;;11.81;62.21;97870.78;3155661;28;20051;-88
2021/12/28 01:17:32;;;;;;;0.30;0.30;;;;;;;11.80;62.20;97877.09;3155242;28;20040;-89
2021/12/28 01:19:05;;;;;;;0.37;0.30;;;;;;;11.81;62.02;97881.41;3156152;28;20104;-87
2021/12/28 01:20:37;;;;;;;0.28;0.28;;;;;;;11.80;62.09;97877.09;3154163;28;20360;-83
2021/12/28 01:22:11;;;;;;;0.40;0.40;;;;;;;11.81;62.26;97884.06;3156278;28;20048;-87
2021/12/28 01:23:43;;;;;;;0.40;0.40;;;;;;;11.81;62.04;97894.69;3152175;28;20337;-86
2021/12/28 01:25:17;;;;;;;0.40;0.40;;;;;;;11.79;62.06;97900.19;3155839;28;20048;-88
2021/12/28 01:26:49;;;;;;;0.88;0.63;;;;;;;11.80;62.30;97899.19;3155768;28;20048;-87
2021/12/28 01:28:21;;;;;;;0.32;0.32;;;;;;;11.79;62.06;97902.84;3155608;28;20048;-88
2021/12/28 01:29:52;;;;;;;0.47;0.30;;;;;;;11.80;62.16;97904.50;3155292;28;20562;-89
2021/12/28 01:31:24;;;;;;;0.55;0.47;;;;;;;11.80;62.01;97903.69;3155034;28;20044;-86
2021/12/28 01:32:59;;;;;;;0.35;0.22;;;;;;;11.79;62.08;97902.84;3156326;28;21594;-88
2021/12/28 01:34:31;;;;;;;0.45;0.28;;;;;;;11.78;61.98;97914.50;3156101;28;20130;-84
2021/12/28 01:36:03;;;;;;;0.17;0.17;;;;;;;11.78;62.01;97908.34;3154032;28;20392;-88
2021/12/28 01:37:37;;;;;;;0.20;0.20;;;;;;;11.79;62.33;97916.13;3155285;28;20036;-89
2021/12/28 01:39:10;;;;;;;0.30;0.30;;;;;;;11.79;62.08;97926.75;3155640;28;20097;-88
2021/12/28 01:40:43;;;;;;;0.25;0.25;;;;;;;11.80;62.09;97923.09;3154497;28;20040;-86
2021/12/28 01:42:14;;;;;;;0.38;0.30;;;;;;;11.79;62.15;97924.09;3156194;28;20074;-88
2021/12/28 01:43:46;;;;;;;0.75;0.38;;;;;;;11.79;62.09;97926.75;3155618;28;20415;-88
2021/12/28 01:45:18;;;;;;;0.30;0.20;;;;;;;11.80;62.00;97922.28;3156021;28;20117;-84
2021/12/28 01:46:50;;;;;;;0.65;0.40;;;;;;;11.79;62.18;97913.47;3155702;28;20427;-89
2021/12/28 01:48:26;;;;;;;0.82;0.38;;;;;;;11.79;62.14;97915.31;3155252;28;20051;-87
2021/12/28 01:49:58;;;;;;;0.25;0.25;;;;;;;11.79;62.03;97916.13;3155487;28;20533;-87
2021/12/28 01:51:32;;;;;;;0.30;0.30;;;;;;;11.78;62.10;97914.50;3155458;28;20044;-87
2021/12/28 01:53:06;;;;;;;0.20;0.20;;;;;;;11.80;62.14;97922.28;3155363;28;20040;-88
2021/12/28 01:54:38;;;;;;;0.40;0.40;;;;;;;11.78;62.10;97917.16;3155313;28;20093;-86
2021/12/28 01:56:13;;;;;;;1.00;0.85;;;;;;;11.79;62.08;97929.41;3156406;28;20044;-84
2021/12/28 01:57:45;;;;;;;0.57;0.45;;;;;;;11.78;62.25;97917.16;3154100;28;20063;-88
2021/12/28 01:59:20;;;;;;;0.38;0.38;;;;;;;11.79;62.05;97913.47;3155699;28;20541;-89
2021/12/28 02:00:54;;;;;;;0.40;0.40;;;;;;;11.78;62.14;97916.31;3155325;28;20097;-87
2021/12/28 02:02:26;;;;;;;0.55;0.45;;;;;;;11.78;61.96;97917.16;3155686;28;20510;-89
2021/12/28 02:03:58;;;;;;;0.20;0.20;;;;;;;11.78;62.02;97922.47;3155214;28;20089;-89
2021/12/28 02:05:30;;;;;;;0.25;0.25;;;;;;;11.77;62.08;97914.66;3154638;28;20040;-87
2021/12/28 02:07:02;;;;;;;0.30;0.30;;;;;;;11.78;62.19;97919.81;3154100;28;20048;-89
2021/12/28 02:08:39;;;;;;;0.60;0.57;;;;;;;11.78;62.13;97917.16;3156133;28;20123;-89
2021/12/28 02:10:11;;;;;;;0.32;0.30;;;;;;;11.78;62.12;97919.81;3168292;28;20047;-88
2021/12/28 02:11:44;;;;;;;0.40;0.40;;;;;;;11.78;62.09;97911.84;3167372;28;20043;-87
2021/12/28 02:13:17;;;;;;;0.30;0.30;;;;;;;11.78;62.22;97914.50;3168739;28;20430;-89
2021/12/28 02:14:48;;;;;;;0.20;0.20;;;;;;;11.78;62.03;97911.84;3165310;28;20092;-85
2021/12/28 02:16:20;;;;;;;0.33;0.33;;;;;;;11.78;62.22;97918.97;3168822;28;20197;-85
2021/12/28 02:17:51;;;;;;;0.88;0.52;;;;;;;11.79;62.07;97913.47;3166600;28;20289;-88
2021/12/28 02:19:22;;;;;;;0.82;0.60;;;;;;;11.77;61.98;97910.16;3167669;28;20065;-89
2021/12/28 02:20:57;;;;;;;0.22;0.22;;;;;;;11.78;62.10;97908.34;3168118;28;20047;-87
2021/12/28 02:22:28;;;;;;;0.55;0.55;;;;;;;11.78;62.11;97906.53;3168232;28;20423;-87
2021/12/28 02:24:02;;;;;;;1.05;0.40;;;;;;;11.78;62.26;97908.34;3167595;28;20047;-87
2021/12/28 02:25:35;;;;;;;0.30;0.30;;;;;;;11.77;62.04;97893.41;3166751;28;20619;-87
2021/12/28 02:27:07;;;;;;;0.40;0.40;;;;;;;11.78;62.22;97903.88;3155013;28;20071;-89
2021/12/28 02:28:39;;;;;;;0.73;0.47;;;;;;;11.77;62.12;97898.72;3155110;28;20040;-87
2021/12/28 02:30:14;;;;;;;0.30;0.30;;;;;;;11.78;61.98;97905.69;3155409;28;20044;-86
2021/12/28 02:31:49;;;;;;;0.47;0.40;;;;;;;11.77;62.05;97899.53;3154861;28;20101;-88
2021/12/28 02:33:23;;;;;;;0.40;0.40;;;;;;;11.78;62.01;97900.34;3155198;28;20044;-88
2021/12/28 02:34:56;;;;;;;0.50;0.50;;;;;;;11.78;62.15;97901.22;3152573;28;20342;-87
2021/12/28 02:36:29;;;;;;;0.55;0.55;;;;;;;11.77;61.91;97899.53;3154825;28;20056;-87
2021/12/28 02:38:02;;;;;;;0.25;0.25;;;;;;;11.78;62.14;97900.34;3155144;28;20036;-87
2021/12/28 02:39:32;;;;;;;0.40;0.30;;;;;;;11.77;62.10;97896.88;3156151;28;20135;-87
2021/12/28 02:41:07;;;;;;;0.27;0.27;;;;;;;11.76;62.02;97903.22;3153875;28;20044;-88
2021/12/28 02:42:40;;;;;;;0.17;0.17;;;;;;;11.79;62.02;97902.03;3152793;28;20044;-87
2021/12/28 02:44:12;;;;;;;0.20;0.20;;;;;;;11.77;62.04;97899.53;3150291;28;20666;-87
2021/12/28 02:45:49;;;;;;;0.60;0.30;;;;;;;11.78;62.18;97895.91;3153767;28;20047;-85
2021/12/28 02:47:21;;;;;;;0.30;0.30;;;;;;;11.77;62.07;97893.41;3153148;28;20426;-87
2021/12/28 02:48:53;;;;;;;0.50;0.40;;;;;;;11.77;62.11;97893.41;3153858;28;20055;-84
2021/12/28 02:50:28;;;;;;;0.57;0.30;;;;;;;11.77;62.18;97896.88;3156062;28;20044;-88
2021/12/28 02:52:01;;;;;;;0.40;0.38;;;;;;;11.77;61.99;97910.16;3152617;28;20086;-88
2021/12/28 02:53:33;;;;;;;0.30;0.30;;;;;;;11.76;62.08;97897.91;3154710;28;20090;-88
2021/12/28 02:55:06;;;;;;;0.45;0.30;;;;;;;11.77;62.12;97893.41;3154911;28;20529;-88
2021/12/28 02:56:37;;;;;;;0.38;0.38;;;;;;;11.77;62.08;97901.38;3155165;28;20055;-89
2021/12/28 02:58:12;;;;;;;0.22;0.22;;;;;;;11.78;62.30;97906.53;3154763;28;20048;-88
2021/12/28 02:59:48;;;;;;;0.43;0.40;;;;;;;11.77;62.16;97904.03;3152326;28;20534;-86
2021/12/28 03:01:23;;;;;;;0.57;0.38;;;;;;;11.76;62.02;97903.22;3155461;28;20067;-88
2021/12/28 03:02:53;;;;;;;0.30;0.30;;;;;;;11.76;62.05;97897.91;3154104;28;20040;-88
2021/12/28 03:04:27;;;;;;;0.63;0.30;;;;;;;11.77;61.96;97898.72;3155383;28;20044;-88
2021/12/28 03:06:01;;;;;;;0.30;0.30;;;;;;;11.77;62.04;97909.34;3153589;28;20044;-88
2021/12/28 03:07:35;;;;;;;0.20;0.20;;;;;;;11.76;62.29;97905.88;3155614;28;20040;-86
2021/12/28 03:09:07;;;;;;;0.32;0.32;;;;;;;11.76;62.13;97897.91;3155073;28;20056;-89
2021/12/28 03:10:41;;;;;;;0.43;0.30;;;;;;;11.76;62.05;97902.38;3154304;28;20427;-86
2021/12/28 03:12:13;;;;;;;0.45;0.22;;;;;;;11.77;62.08;97896.06;3154413;28;20052;-86
2021/12/28 03:13:48;;;;;;;0.28;0.28;;;;;;;11.76;62.17;97894.41;3154829;28;20544;-87
2021/12/28 03:15:20;;;;;;;0.38;0.38;;;;;;;11.76;62.17;97892.59;3154889;28;20050;-88
2021/12/28 03:16:52;;;;;;;0.30;0.30;;;;;;;11.76;62.18;97881.97;3153858;28;20146;-87
2021/12/28 03:18:24;;;;;;;0.43;0.20;;;;;;;11.77;62.23;97890.75;3154075;28;20051;-88
2021/12/28 03:19:56;;;;;;;0.30;0.30;;;;;;;11.76;62.09;97895.25;3154209;28;20052;-88
2021/12/28 03:21:28;;;;;;;0.40;0.28;;;;;;;11.75;62.01;97898.88;3155011;28;20498;-85
2021/12/28 03:23:01;;;;;;;0.35;0.35;;;;;;;11.76;62.04;97892.59;3154259;28;20510;-85
2021/12/28 03:24:33;;;;;;;0.38;0.28;;;;;;;11.76;61.87;97891.75;3149015;28;20060;-85
2021/12/28 03:26:06;;;;;;;0.70;0.45;;;;;;;11.77;62.10;97885.44;3154432;28;20338;-85
2021/12/28 03:27:39;;;;;;;0.40;0.40;;;;;;;11.77;62.19;97882.78;3154849;28;20040;-85
2021/12/28 03:29:11;;;;;;;0.68;0.40;;;;;;;11.77;62.23;97882.78;3155816;28;20101;-87
2021/12/28 03:30:43;;;;;;;0.55;0.40;;;;;;;11.77;62.04;97882.78;3154118;28;20457;-88
2021/12/28 03:32:15;;;;;;;0.38;0.30;;;;;;;11.76;62.35;97881.13;3151730;28;20125;-87
2021/12/28 03:33:50;;;;;;;0.30;0.30;;;;;;;11.75;62.25;97880.28;3154971;28;20051;-87
2021/12/28 03:35:22;;;;;;;0.32;0.20;;;;;;;11.76;61.94;97878.47;3155136;28;20392;-87
2021/12/28 03:36:54;;;;;;;0.32;0.22;;;;;;;11.76;62.01;97879.31;3154863;28;20085;-89
2021/12/28 03:38:28;;;;;;;0.20;0.20;;;;;;;11.75;62.00;97877.63;3155563;28;20230;-86
2021/12/28 03:40:04;;;;;;;0.47;0.47;;;;;;;11.76;62.06;97881.97;3154008;28;20143;-85
2021/12/28 03:41:36;;;;;;;0.20;0.20;;;;;;;11.76;62.13;97887.28;3154190;28;20419;-88
2021/12/28 03:43:08;;;;;;;0.22;0.22;;;;;;;11.75;62.17;97890.91;3154507;28;20044;-84
2021/12/28 03:44:40;;;;;;;0.47;0.47;;;;;;;11.76;62.06;97892.59;3154121;28;20040;-88
2021/12/28 03:46:13;;;;;;;0.30;0.30;;;;;;;11.77;61.98;97883.59;3154900;28;20097;-88
2021/12/28 03:47:45;;;;;;;0.30;0.30;;;;;;;11.74;62.12;97878.66;3155114;28;20656;-88
2021/12/28 03:49:16;;;;;;;0.50;0.40;;;;;;;11.76;61.96;97881.13;3155271;28;20079;-87
2021/12/28 03:50:48;;;;;;;0.52;0.40;;;;;;;11.75;62.31;97880.28;3153109;28;20044;-88
2021/12/28 03:52:20;;;;;;;0.32;0.30;;;;;;;11.75;62.15;97869.66;3155062;28;20040;-87
2021/12/28 03:53:54;;;;;;;0.20;0.20;;;;;;;11.75;61.97;97868.84;3153655;28;20525;-87
2021/12/28 03:55:27;;;;;;;0.47;0.38;;;;;;;11.74;62.10;97862.72;3155234;28;20048;-85
2021/12/28 03:56:59;;;;;;;0.20;0.20;;;;;;;11.74;61.97;97870.69;3154518;28;20101;-88
2021/12/28 03:58:31;;;;;;;0.17;0.15;;;;;;;11.75;62.08;97869.66;3153578;28;20376;-87
2021/12/28 04:00:04;;;;;;;0.30;0.30;;;;;;;11.75;62.10;97877.63;3155695;28;20298;-86
2021/12/28 04:01:36;;;;;;;0.40;0.40;;;;;;;11.75;62.05;97888.25;3157040;28;20051;-85
2021/12/28 04:03:09;;;;;;;0.32;0.32;;;;;;;11.76;62.19;97891.75;3156852;28;20043;-87
2021/12/28 04:04:41;;;;;;;0.82;0.20;;;;;;;11.74;62.09;97896.41;3156676;28;20119;-85
2021/12/28 04:06:13;;;;;;;0.30;0.30;;;;;;;11.74;62.11;97894.59;3155357;28;20047;-88
2021/12/28 04:07:46;;;;;;;0.52;0.52;;;;;;;11.75;62.09;97906.84;3154414;28;20081;-88
2021/12/28 04:09:34;;;;;;;0.43;0.38;;;;;;;11.74;62.07;97910.53;3155978;28;20401;-87
2021/12/28 04:11:15;;;;;;;0.85;0.45;;;;;;;11.75;62.16;97917.47;3156715;28;20051;-88
2021/12/28 04:12:47;;;;;;;0.28;0.28;;;;;;;11.75;61.94;97925.44;3155765;28;20040;-89
2021/12/28 04:14:19;;;;;;;;;;;;;;;11.76;62.12;97935.09;3157924;28;20048;-85
2021/12/28 04:15:51;;;;;;;0.30;0.30;;;;;;;11.74;62.05;97929.13;3156780;28;19962;-87
2021/12/28 04:17:24;;;;;;;0.30;0.30;;;;;;;11.74;62.02;97931.78;3156559;28;20055;-89
2021/12/28 04:18:56;;;;;;;0.30;0.28;;;;;;;11.73;61.99;97930.13;3156951;28;20055;-88
2021/12/28 04:20:28;;;;;;;0.20;0.20;;;;;;;11.74;62.16;97933.63;3155081;28;20055;-86
2021/12/28 04:22:00;;;;;;;0.55;0.45;;;;;;;11.75;62.06;97933.41;3157169;28;20044;-88
2021/12/28 04:23:32;;;;;;;0.65;0.40;;;;;;;11.75;62.03;97927.28;3156675;28;20044;-87
2021/12/28 04:25:08;;;;;;;0.40;0.40;;;;;;;11.75;62.17;97928.09;3156385;28;20116;-88
2021/12/28 04:26:39;;;;;;;0.50;0.30;;;;;;;11.74;62.07;97923.00;3155270;28;20047;-88
2021/12/28 04:28:11;;;;;;;0.37;0.37;;;;;;;11.73;62.29;97919.50;3156776;28;20129;-88
2021/12/28 04:29:43;;;;;;;0.32;0.28;;;;;;;11.74;62.00;97926.47;3155041;28;20285;-86
2021/12/28 04:31:15;;;;;;;0.38;0.38;;;;;;;11.73;62.15;97930.13;3157470;28;20519;-88
2021/12/28 04:32:47;;;;;;;1.02;0.60;;;;;;;11.74;62.08;97937.09;3155227;28;20411;-89
2021/12/28 04:34:21;;;;;;;0.40;0.28;;;;;;;11.74;62.37;97930.97;3157067;28;20040;-88
2021/12/28 04:35:53;;;;;;;0.38;0.35;;;;;;;11.74;62.21;97934.44;3156276;28;20089;-84
2021/12/28 04:37:25;;;;;;;0.40;0.40;;;;;;;11.73;62.24;97935.44;3156817;28;20568;-88
2021/12/28 04:38:57;;;;;;;0.30;0.30;;;;;;;11.73;62.23;97938.09;3155938;28;20419;-88
2021/12/28 04:40:31;;;;;;;0.22;0.22;;;;;;;11.72;62.05;97939.09;3156421;28;20036;-86
2021/12/28 04:42:03;;;;;;;0.57;0.57;;;;;;;11.74;62.05;97950.38;3155955;28;20431;-86
2021/12/28 04:43:35;;;;;;;0.28;0.28;;;;;;;11.73;62.13;97947.88;3156432;28;20537;-87
2021/12/28 04:45:09;;;;;;;0.30;0.30;;;;;;;11.74;62.08;97946.91;3156385;28;20491;-87
2021/12/28 04:46:41;;;;;;;0.47;0.35;;;;;;;11.74;62.15;97953.03;3156266;28;20040;-89
2021/12/28 04:48:13;;;;;;;0.70;0.40;;;;;;;11.74;62.03;97950.38;3156511;28;20097;-89
2021/12/28 04:49:46;;;;;;;0.40;0.28;;;;;;;11.74;62.18;97955.69;3155914;28;20044;-86
2021/12/28 04:51:18;;;;;;;0.20;0.20;;;;;;;11.73;62.08;97955.84;3155588;28;20237;-87
2021/12/28 04:52:52;;;;;;;0.55;0.40;;;;;;;11.74;62.16;97960.19;3154462;28;20048;-88
2021/12/28 04:54:24;;;;;;;0.85;0.40;;;;;;;11.74;62.06;97968.16;3155486;28;20055;-85
2021/12/28 04:55:58;;;;;;;0.40;0.32;;;;;;;11.73;62.13;97964.66;3156045;28;20446;-89
2021/12/28 04:57:30;;;;;;;0.30;0.30;;;;;;;11.73;62.19;97964.66;3154412;28;20044;-87
2021/12/28 04:59:02;;;;;;;0.40;0.40;;;;;;;11.73;62.09;97967.31;3156096;28;20528;-88
2021/12/28 05:00:34;;;;;;;0.30;0.30;;;;;;;11.73;61.93;97967.31;3155191;28;20097;-87
2021/12/28 05:02:06;;;;;;;0.30;0.30;;;;;;;11.73;62.10;97969.97;3156953;28;20048;-85
2021/12/28 05:03:38;;;;;;;0.20;0.20;;;;;;;11.72;62.15;97970.97;3156256;28;20070;-84
2021/12/28 05:05:10;;;;;;;0.25;0.20;;;;;;;11.72;62.06;97972.81;3156281;28;20567;-87
2021/12/28 05:06:43;;;;;;;0.52;0.38;;;;;;;11.71;62.33;97971.97;3153485;28;20044;-86
2021/12/28 05:08:14;;;;;;;0.50;0.40;;;;;;;11.73;62.26;97975.28;3157530;28;20093;-86
2021/12/28 05:09:46;;;;;;;0.20;0.20;;;;;;;11.73;62.13;97979.75;3156308;28;20612;-87
2021/12/28 05:11:19;;;;;;;0.22;0.22;;;;;;;11.74;62.12;97986.75;3156748;28;20572;-88
2021/12/28 05:12:51;;;;;;;0.47;0.40;;;;;;;11.72;62.14;97986.91;3156172;28;20040;-88
2021/12/28 05:14:23;;;;;;;0.93;0.52;;;;;;;11.73;62.12;97985.06;3156769;28;20302;-88
2021/12/28 05:15:55;;;;;;;0.32;0.32;;;;;;;11.73;62.10;97983.25;3155560;28;20044;-87
2021/12/28 05:17:28;;;;;;;0.40;0.40;;;;;;;11.74;62.12;97989.41;3157015;28;20101;-86
2021/12/28 05:19:01;;;;;;;0.55;0.50;;;;;;;11.72;61.97;97986.09;3155307;28;20043;-87
2021/12/28 05:20:33;;;;;;;0.20;0.20;;;;;;;11.73;62.13;97999.22;3156356;28;20051;-87
2021/12/28 05:22:08;;;;;;;0.32;0.30;;;;;;;11.74;62.15;98002.69;3156790;28;20044;-87
2021/12/28 05:23:40;;;;;;;0.30;0.30;;;;;;;11.72;62.36;98000.19;3154557;28;20032;-88
2021/12/28 05:25:11;;;;;;;0.22;0.22;;;;;;;11.73;62.03;97998.34;3156408;28;20130;-84
2021/12/28 05:26:44;;;;;;;0.38;0.30;;;;;;;11.72;62.04;97986.91;3156124;28;20043;-87
2021/12/28 05:28:16;;;;;;;0.25;0.25;;;;;;;11.72;62.06;97983.44;3154812;28;20580;-86
2021/12/28 05:29:48;;;;;;;0.45;0.40;;;;;;;11.72;62.08;97978.94;3155762;28;20510;-88
2021/12/28 05:31:25;;;;;;;0.38;0.32;;;;;;;11.73;61.99;97971.78;3155387;28;20040;-88
2021/12/28 05:32:58;;;;;;;0.30;0.30;;;;;;;11.72;62.17;97965.66;3155148;28;20051;-87
2021/12/28 05:34:30;;;;;;;0.93;0.25;;;;;;;11.72;62.09;97965.66;3155980;28;20074;-87
2021/12/28 05:36:02;;;;;;;0.25;0.25;;;;;;;11.71;62.07;97958.69;3156277;28;20074;-86
2021/12/28 05:37:35;;;;;;;0.40;0.40;;;;;;;11.72;62.26;97960.34;3157074;28;20062;-86
2021/12/28 05:39:07;;;;;;;0.20;0.20;;;;;;;11.72;62.16;97959.53;3168532;28;20107;-88
2021/12/28 05:40:39;;;;;;;0.32;0.32;;;;;;;11.71;62.01;97965.84;3168464;28;20089;-87
2021/12/28 05:42:12;;;;;;;0.32;0.32;;;;;;;11.71;62.21;97958.69;3168885;28;20048;-86
2021/12/28 05:43:44;;;;;;;0.22;0.22;;;;;;;11.70;62.04;97959.72;3169329;28;20040;-87
2021/12/28 05:45:16;;;;;;;0.32;0.32;;;;;;;11.71;62.13;97971.97;3169603;28;20051;-88
2021/12/28 05:46:49;;;;;;;0.30;0.30;;;;;;;11.71;62.05;97969.31;3169098;28;20463;-87
2021/12/28 05:48:21;;;;;;;0.30;0.30;;;;;;;11.71;62.03;97963.19;3168039;28;20036;-87
2021/12/28 05:49:53;;;;;;;0.35;0.35;;;;;;;11.71;62.11;97965.84;3168797;28;20050;-86
2021/12/28 05:51:27;;;;;;;0.40;0.40;;;;;;;11.73;62.18;97966.47;3169558;28;20092;-85
2021/12/28 05:52:59;;;;;;;0.10;0.10;;;;;;;11.72;62.08;97965.66;3169012;28;20190;-87
2021/12/28 05:54:33;;;;;;;0.32;0.30;;;;;;;11.72;62.01;97962.19;3168232;28;20101;-86
2021/12/28 05:56:06;;;;;;;0.13;0.13;;;;;;;11.72;61.89;97951.56;3168386;28;20066;-86
2021/12/28 05:57:39;;;;;;;0.57;0.32;;;;;;;11.71;62.10;97953.38;3168475;28;20051;-84
2021/12/28 05:59:11;;;;;;;0.30;0.30;;;;;;;11.71;62.23;97957.88;3168605;28;20498;-87
2021/12/28 06:00:44;;;;;;;0.30;0.30;;;;;;;11.70;62.21;97967.69;3169062;28;20032;-89
2021/12/28 06:02:16;;;;;;;0.80;0.40;;;;;;;11.72;62.05;97970.16;3169232;28;20043;-89
2021/12/28 06:03:48;;;;;;;0.68;0.38;;;;;;;11.71;62.11;97979.13;3169179;28;20055;-88
2021/12/28 06:05:20;;;;;;;0.30;0.30;;;;;;;11.73;62.04;97979.75;3168333;28;20047;-84
2021/12/28 06:06:52;;;;;;;0.35;0.35;;;;;;;11.70;62.03;97967.69;3167885;28;20101;-87
2021/12/28 06:08:24;;;;;;;0.30;0.30;;;;;;;11.72;62.24;97964.84;3169598;28;20886;-87
2021/12/28 06:09:56;;;;;;;0.20;0.20;;;;;;;11.71;62.21;97968.50;3169680;28;20051;-88
2021/12/28 06:11:28;;;;;;;0.40;0.40;;;;;;;11.70;62.19;97969.47;3168262;28;20510;-88
2021/12/28 06:13:01;;;;;;;0.73;0.55;;;;;;;11.72;62.18;97967.50;3169683;28;20131;-85
2021/12/28 06:14:33;;;;;;;0.20;0.20;;;;;;;11.71;62.13;97964.00;3169041;28;20422;-88
2021/12/28 06:16:06;;;;;;;0.47;0.47;;;;;;;11.72;62.01;97975.47;3170487;28;20127;-86
2021/12/28 06:17:38;;;;;;;0.22;0.22;;;;;;;11.71;62.33;97979.94;3161710;28;20064;-88
2021/12/28 06:19:10;;;;;;;0.28;0.20;;;;;;;11.71;62.19;97974.63;3170933;28;20043;-88
2021/12/28 06:20:42;;;;;;;0.35;0.35;;;;;;;11.70;62.28;97980.09;3169211;28;20040;-85
2021/12/28 06:22:14;;;;;;;0.40;0.20;;;;;;;11.71;62.07;97976.47;3171237;28;20422;-85
2021/12/28 06:23:45;;;;;;;0.40;0.30;;;;;;;11.70;61.88;97973.00;3172753;28;20035;-86
2021/12/28 06:25:17;;;;;;;0.40;0.40;;;;;;;11.70;62.14;97977.44;3172132;28;20652;-85
2021/12/28 06:26:49;;;;;;;0.50;0.50;;;;;;;11.70;62.16;97975.66;3169414;28;20047;-87
2021/12/28 06:28:23;;;;;;;0.28;0.28;;;;;;;11.71;62.12;97981.78;3168936;28;20510;-88
2021/12/28 06:29:55;;;;;;;0.75;0.32;;;;;;;11.71;62.09;97979.13;3167278;28;20036;-89
2021/12/28 06:31:28;;;;;;;0.20;0.20;;;;;;;11.70;62.09;97973.00;3168485;28;20047;-89
2021/12/28 06:33:00;;;;;;;0.38;0.25;;;;;;;11.71;62.03;97976.47;3167233;28;20155;-86
2021/12/28 06:34:32;;;;;;;0.30;0.30;;;;;;;11.71;62.09;97974.63;3168161;28;20044;-87
2021/12/28 06:36:05;;;;;;;0.50;0.38;;;;;;;11.73;62.10;97969.13;3166934;28;20043;-88
2021/12/28 06:37:37;;;;;;;0.20;0.20;;;;;;;11.71;62.08;97957.88;3166744;28;20441;-88
2021/12/28 06:39:10;;;;;;;0.45;0.40;;;;;;;11.71;62.12;97957.88;3168118;28;20450;-85
2021/12/28 06:40:42;;;;;;;0.30;0.30;;;;;;;11.70;62.13;97962.38;3168293;28;20532;-85
2021/12/28 06:42:17;;;;;;;0.47;0.38;;;;;;;11.70;62.07;97975.66;3166876;28;20043;-88
2021/12/28 06:43:50;;;;;;;0.38;0.25;;;;;;;11.70;62.14;97969.47;3167562;28;20039;-85
2021/12/28 06:45:22;;;;;;;0.22;0.22;;;;;;;11.70;62.09;97973.00;3167939;28;20044;-86
2021/12/28 06:46:54;;;;;;;0.35;0.35;;;;;;;11.70;62.10;97975.66;3168503;28;20047;-87
2021/12/28 06:48:26;;;;;;;0.45;0.30;;;;;;;11.70;62.01;97980.97;3167990;28;20112;-86
2021/12/28 06:49:58;;;;;;;0.63;0.63;;;;;;;11.69;62.25;97984.59;3168077;28;20036;-88
2021/12/28 06:51:30;;;;;;;0.40;0.40;;;;;;;11.70;62.07;97985.44;3164353;28;20040;-88
2021/12/28 06:53:02;;;;;;;0.20;0.20;;;;;;;11.70;62.41;97988.94;3166732;28;20100;-87
2021/12/28 06:54:37;;;;;;;0.70;0.50;;;;;;;11.70;62.22;97994.25;3166520;28;20054;-84
2021/12/28 06:56:09;;;;;;;0.40;0.40;;;;;;;11.69;62.19;97981.94;3155099;28;20048;-87
2021/12/28 06:57:41;;;;;;;0.30;0.30;;;;;;;11.69;62.15;97983.78;3153677;28;20419;-89
2021/12/28 06:59:14;;;;;;;0.32;0.32;;;;;;;11.69;62.13;97997.06;3155257;28;20297;-88
2021/12/28 07:00:46;;;;;;;1.10;0.50;;;;;;;11.70;62.20;97983.63;3154332;28;20446;-87
2021/12/28 07:02:19;;;;;;;0.17;0.17;;;;;;;11.70;62.00;97983.63;3152997;28;20054;-87
2021/12/28 07:03:51;;;;;;;0.25;0.20;;;;;;;11.69;62.18;97975.81;3154515;28;20229;-87
2021/12/28 07:05:23;;;;;;;0.55;0.55;;;;;;;11.70;62.08;97980.09;3155861;28;20094;-85
2021/12/28 07:06:54;;;;;;;0.20;0.20;;;;;;;11.69;62.13;97971.31;3155438;28;20040;-87
2021/12/28 07:08:26;;;;;;;0.55;0.30;;;;;;;11.70;62.34;97975.66;3154268;28;20040;-87
2021/12/28 07:09:58;;;;;;;0.40;0.40;;;;;;;11.69;62.19;97983.78;3154028;28;20392;-86
2021/12/28 07:11:30;;;;;;;0.40;0.40;;;;;;;11.70;62.20;97973.00;3155675;28;20036;-86
2021/12/28 07:13:02;;;;;;;0.47;0.38;;;;;;;11.71;61.98;97984.44;3154193;28;20048;-88
2021/12/28 07:14:36;;;;;;;0.32;0.30;;;;;;;11.69;62.22;97979.28;3155460;28;20036;-88
2021/12/28 07:16:07;;;;;;;0.30;0.30;;;;;;;11.69;62.20;97978.47;3155145;28;20121;-87
2021/12/28 07:17:40;;;;;;;0.30;0.30;;;;;;;11.70;62.32;97980.09;3154222;28;20040;-87